Charlotte, Tennessee
Current Conditions -  °F | °C
As of 5:03 PM on Monday 22 Dec 2014 (Local Time) from KCKV Reporting Station
Overcast Overcast  
Wind Chill: 53°   Ceiling: 1400
Heat Index: 53°   Visibility: 10mi
Dew Point: 48°   Wind: 13mph
Humidity: 83%   Direction: 150°SSE
Pressure: 29.68"   Gusts: NA
Location:  36.18°N, 87.34°W
Report Text: KCKV 222303Z AUTO 15011KT 10SM OVC014 12/09 A2968 RMK AO2 T01170089
Loading
Personal Weather Stations






























Interactive Weather Map New forecast layout! Learn more

10-Day Weather Forecast

Advertisements
Track Severe Weather on mobile